sensor_id;sensor_type;location;lat;lon;timestamp;P1;durP1;ratioP1;P2;durP2;ratioP2
65583;SDS011;73032;43.592;1.458;2024-02-23T00:02:05;9.02;;;1.60;;
65583;SDS011;73032;43.592;1.458;2024-02-23T00:04:32;12.27;;;1.55;;
65583;SDS011;73032;43.592;1.458;2024-02-23T00:06:59;10.93;;;1.60;;
65583;SDS011;73032;43.592;1.458;2024-02-23T00:09:26;7.80;;;1.42;;
65583;SDS011;73032;43.592;1.458;2024-02-23T00:11:53;8.57;;;1.30;;
65583;SDS011;73032;43.592;1.458;2024-02-23T00:14:20;12.23;;;1.63;;
65583;SDS011;73032;43.592;1.458;2024-02-23T00:16:47;10.43;;;1.10;;
65583;SDS011;73032;43.592;1.458;2024-02-23T00:19:15;9.52;;;1.27;;
65583;SDS011;73032;43.592;1.458;2024-02-23T00:21:44;6.82;;;1.20;;
65583;SDS011;73032;43.592;1.458;2024-02-23T00:24:16;9.63;;;1.63;;
65583;SDS011;73032;43.592;1.458;2024-02-23T00:26:43;7.82;;;1.45;;
65583;SDS011;73032;43.592;1.458;2024-02-23T00:29:10;7.15;;;1.80;;
65583;SDS011;73032;43.592;1.458;2024-02-23T00:31:38;11.13;;;2.17;;
65583;SDS011;73032;43.592;1.458;2024-02-23T00:34:07;13.45;;;1.80;;
65583;SDS011;73032;43.592;1.458;2024-02-23T00:36:40;9.25;;;1.50;;
65583;SDS011;73032;43.592;1.458;2024-02-23T00:39:07;10.45;;;2.10;;
65583;SDS011;73032;43.592;1.458;2024-02-23T00:41:35;9.25;;;1.40;;
65583;SDS011;73032;43.592;1.458;2024-02-23T00:44:02;9.23;;;1.50;;
65583;SDS011;73032;43.592;1.458;2024-02-23T00:46:30;10.30;;;1.52;;
65583;SDS011;73032;43.592;1.458;2024-02-23T00:48:56;9.07;;;1.42;;
65583;SDS011;73032;43.592;1.458;2024-02-23T00:51:23;7.32;;;1.63;;
65583;SDS011;73032;43.592;1.458;2024-02-23T00:53:50;8.75;;;1.27;;
65583;SDS011;73032;43.592;1.458;2024-02-23T00:56:17;9.07;;;1.35;;
65583;SDS011;73032;43.592;1.458;2024-02-23T00:58:43;7.00;;;1.25;;
65583;SDS011;73032;43.592;1.458;2024-02-23T01:01:10;7.20;;;1.73;;
65583;SDS011;73032;43.592;1.458;2024-02-23T01:03:37;9.30;;;1.52;;
65583;SDS011;73032;43.592;1.458;2024-02-23T01:06:04;9.98;;;1.50;;
65583;SDS011;73032;43.592;1.458;2024-02-23T01:08:31;8.55;;;1.33;;
65583;SDS011;73032;43.592;1.458;2024-02-23T01:10:57;13.57;;;1.90;;
65583;SDS011;73032;43.592;1.458;2024-02-23T01:13:24;10.05;;;1.40;;
65583;SDS011;73032;43.592;1.458;2024-02-23T01:15:51;11.52;;;1.25;;
65583;SDS011;73032;43.592;1.458;2024-02-23T01:18:20;9.40;;;1.40;;
65583;SDS011;73032;43.592;1.458;2024-02-23T01:20:47;12.00;;;1.80;;
65583;SDS011;73032;43.592;1.458;2024-02-23T01:23:13;10.52;;;1.30;;
65583;SDS011;73032;43.592;1.458;2024-02-23T01:25:40;7.20;;;1.20;;
65583;SDS011;73032;43.592;1.458;2024-02-23T01:28:07;9.98;;;1.58;;
65583;SDS011;73032;43.592;1.458;2024-02-23T01:30:33;7.50;;;1.60;;
65583;SDS011;73032;43.592;1.458;2024-02-23T01:33:00;9.43;;;1.48;;
65583;SDS011;73032;43.592;1.458;2024-02-23T01:35:27;8.38;;;1.50;;
65583;SDS011;73032;43.592;1.458;2024-02-23T01:37:55;8.18;;;1.10;;
65583;SDS011;73032;43.592;1.458;2024-02-23T01:40:22;7.93;;;1.52;;
65583;SDS011;73032;43.592;1.458;2024-02-23T01:42:48;6.57;;;1.20;;
65583;SDS011;73032;43.592;1.458;2024-02-23T01:45:15;10.20;;;1.58;;
65583;SDS011;73032;43.592;1.458;2024-02-23T01:47:42;10.38;;;1.85;;
65583;SDS011;73032;43.592;1.458;2024-02-23T01:50:09;7.80;;;1.30;;
65583;SDS011;73032;43.592;1.458;2024-02-23T01:52:36;10.60;;;1.98;;
65583;SDS011;73032;43.592;1.458;2024-02-23T01:55:03;9.27;;;1.35;;
65583;SDS011;73032;43.592;1.458;2024-02-23T01:57:30;7.90;;;1.48;;
65583;SDS011;73032;43.592;1.458;2024-02-23T02:00:15;9.02;;;1.88;;
65583;SDS011;73032;43.592;1.458;2024-02-23T02:02:43;6.65;;;1.10;;
65583;SDS011;73032;43.592;1.458;2024-02-23T02:05:11;7.22;;;1.30;;
65583;SDS011;73032;43.592;1.458;2024-02-23T02:07:38;7.03;;;1.40;;
65583;SDS011;73032;43.592;1.458;2024-02-23T02:10:06;8.90;;;1.50;;
65583;SDS011;73032;43.592;1.458;2024-02-23T02:12:35;10.13;;;1.30;;
65583;SDS011;73032;43.592;1.458;2024-02-23T02:15:02;10.43;;;1.35;;
65583;SDS011;73032;43.592;1.458;2024-02-23T02:17:30;8.05;;;1.40;;
65583;SDS011;73032;43.592;1.458;2024-02-23T02:20:02;10.27;;;1.40;;
65583;SDS011;73032;43.592;1.458;2024-02-23T02:22:33;13.23;;;1.73;;
65583;SDS011;73032;43.592;1.458;2024-02-23T02:25:00;9.07;;;1.20;;
65583;SDS011;73032;43.592;1.458;2024-02-23T02:27:27;8.85;;;1.10;;
65583;SDS011;73032;43.592;1.458;2024-02-23T02:29:54;9.82;;;1.50;;
65583;SDS011;73032;43.592;1.458;2024-02-23T02:32:21;10.52;;;1.35;;
65583;SDS011;73032;43.592;1.458;2024-02-23T02:34:47;8.23;;;1.23;;
65583;SDS011;73032;43.592;1.458;2024-02-23T02:37:14;13.15;;;1.45;;
65583;SDS011;73032;43.592;1.458;2024-02-23T02:39:41;9.68;;;1.30;;
65583;SDS011;73032;43.592;1.458;2024-02-23T02:42:08;8.02;;;1.20;;
65583;SDS011;73032;43.592;1.458;2024-02-23T02:44:34;7.68;;;1.48;;
65583;SDS011;73032;43.592;1.458;2024-02-23T02:47:01;15.13;;;1.40;;
65583;SDS011;73032;43.592;1.458;2024-02-23T02:49:28;8.93;;;1.17;;
65583;SDS011;73032;43.592;1.458;2024-02-23T02:51:54;9.50;;;1.50;;
65583;SDS011;73032;43.592;1.458;2024-02-23T02:54:21;10.73;;;1.50;;
65583;SDS011;73032;43.592;1.458;2024-02-23T02:56:48;9.55;;;1.00;;
65583;SDS011;73032;43.592;1.458;2024-02-23T02:59:16;7.68;;;1.42;;
65583;SDS011;73032;43.592;1.458;2024-02-23T03:01:44;9.95;;;1.23;;
65583;SDS011;73032;43.592;1.458;2024-02-23T03:04:13;9.70;;;1.30;;
65583;SDS011;73032;43.592;1.458;2024-02-23T03:06:40;7.30;;;1.42;;
65583;SDS011;73032;43.592;1.458;2024-02-23T03:09:06;9.88;;;1.25;;
65583;SDS011;73032;43.592;1.458;2024-02-23T03:11:33;7.05;;;1.48;;
65583;SDS011;73032;43.592;1.458;2024-02-23T03:14:00;6.85;;;1.20;;
65583;SDS011;73032;43.592;1.458;2024-02-23T03:16:27;9.48;;;1.17;;
65583;SDS011;73032;43.592;1.458;2024-02-23T03:18:56;6.85;;;1.40;;
65583;SDS011;73032;43.592;1.458;2024-02-23T03:21:23;8.35;;;1.20;;
65583;SDS011;73032;43.592;1.458;2024-02-23T03:23:50;5.78;;;1.20;;
65583;SDS011;73032;43.592;1.458;2024-02-23T03:26:17;9.35;;;1.38;;
65583;SDS011;73032;43.592;1.458;2024-02-23T03:28:43;7.20;;;1.05;;
65583;SDS011;73032;43.592;1.458;2024-02-23T03:31:10;8.20;;;1.10;;
65583;SDS011;73032;43.592;1.458;2024-02-23T03:33:37;6.53;;;1.20;;
65583;SDS011;73032;43.592;1.458;2024-02-23T03:36:04;5.80;;;0.95;;
65583;SDS011;73032;43.592;1.458;2024-02-23T03:38:30;7.43;;;1.40;;
65583;SDS011;73032;43.592;1.458;2024-02-23T03:40:58;10.05;;;1.40;;
65583;SDS011;73032;43.592;1.458;2024-02-23T03:43:25;6.60;;;1.30;;
65583;SDS011;73032;43.592;1.458;2024-02-23T03:45:51;11.20;;;1.73;;
65583;SDS011;73032;43.592;1.458;2024-02-23T03:48:18;7.07;;;1.05;;
65583;SDS011;73032;43.592;1.458;2024-02-23T03:50:45;5.43;;;0.80;;
65583;SDS011;73032;43.592;1.458;2024-02-23T03:53:12;8.85;;;1.30;;
65583;SDS011;73032;43.592;1.458;2024-02-23T03:55:39;5.35;;;0.77;;
65583;SDS011;73032;43.592;1.458;2024-02-23T03:58:05;6.30;;;0.93;;
65583;SDS011;73032;43.592;1.458;2024-02-23T04:00:32;7.53;;;0.90;;
65583;SDS011;73032;43.592;1.458;2024-02-23T04:02:59;5.78;;;1.05;;
65583;SDS011;73032;43.592;1.458;2024-02-23T04:05:25;7.53;;;0.82;;
65583;SDS011;73032;43.592;1.458;2024-02-23T04:07:52;7.60;;;1.75;;
65583;SDS011;73032;43.592;1.458;2024-02-23T04:10:19;6.80;;;1.48;;
65583;SDS011;73032;43.592;1.458;2024-02-23T04:12:46;6.07;;;1.00;;
65583;SDS011;73032;43.592;1.458;2024-02-23T04:15:13;7.30;;;1.23;;
65583;SDS011;73032;43.592;1.458;2024-02-23T04:17:40;5.55;;;1.00;;
65583;SDS011;73032;43.592;1.458;2024-02-23T04:20:07;4.68;;;0.90;;
65583;SDS011;73032;43.592;1.458;2024-02-23T04:22:36;4.45;;;0.65;;
65583;SDS011;73032;43.592;1.458;2024-02-23T04:25:03;4.13;;;0.60;;
65583;SDS011;73032;43.592;1.458;2024-02-23T04:27:31;6.97;;;0.90;;
65583;SDS011;73032;43.592;1.458;2024-02-23T04:29:58;6.40;;;0.93;;
65583;SDS011;73032;43.592;1.458;2024-02-23T04:32:25;3.15;;;0.52;;
65583;SDS011;73032;43.592;1.458;2024-02-23T04:34:52;4.80;;;0.90;;
65583;SDS011;73032;43.592;1.458;2024-02-23T04:37:19;6.30;;;0.90;;
65583;SDS011;73032;43.592;1.458;2024-02-23T04:39:46;2.05;;;0.50;;
65583;SDS011;73032;43.592;1.458;2024-02-23T04:42:12;4.95;;;0.95;;
65583;SDS011;73032;43.592;1.458;2024-02-23T04:44:41;3.80;;;0.80;;
65583;SDS011;73032;43.592;1.458;2024-02-23T04:47:08;3.22;;;0.60;;
65583;SDS011;73032;43.592;1.458;2024-02-23T04:49:35;6.00;;;0.98;;
65583;SDS011;73032;43.592;1.458;2024-02-23T04:52:02;6.20;;;0.82;;
65583;SDS011;73032;43.592;1.458;2024-02-23T04:54:29;4.28;;;0.63;;
65583;SDS011;73032;43.592;1.458;2024-02-23T04:56:55;3.30;;;1.02;;
65583;SDS011;73032;43.592;1.458;2024-02-23T04:59:22;3.30;;;0.65;;
65583;SDS011;73032;43.592;1.458;2024-02-23T05:01:49;7.50;;;0.65;;
65583;SDS011;73032;43.592;1.458;2024-02-23T05:04:16;3.65;;;0.50;;
65583;SDS011;73032;43.592;1.458;2024-02-23T05:06:42;5.20;;;0.68;;
65583;SDS011;73032;43.592;1.458;2024-02-23T05:09:10;4.60;;;0.73;;
65583;SDS011;73032;43.592;1.458;2024-02-23T05:11:37;9.85;;;0.90;;
65583;SDS011;73032;43.592;1.458;2024-02-23T05:14:04;5.22;;;0.52;;
65583;SDS011;73032;43.592;1.458;2024-02-23T05:16:32;7.13;;;0.90;;
65583;SDS011;73032;43.592;1.458;2024-02-23T05:18:59;3.42;;;0.50;;
65583;SDS011;73032;43.592;1.458;2024-02-23T05:21:25;4.93;;;0.68;;
65583;SDS011;73032;43.592;1.458;2024-02-23T05:23:52;5.07;;;0.60;;
65583;SDS011;73032;43.592;1.458;2024-02-23T05:26:19;3.70;;;0.40;;
65583;SDS011;73032;43.592;1.458;2024-02-23T05:28:46;7.05;;;0.52;;
65583;SDS011;73032;43.592;1.458;2024-02-23T05:31:13;2.95;;;0.70;;
65583;SDS011;73032;43.592;1.458;2024-02-23T05:33:40;1.25;;;0.40;;
65583;SDS011;73032;43.592;1.458;2024-02-23T05:36:07;1.60;;;0.40;;
65583;SDS011;73032;43.592;1.458;2024-02-23T05:38:34;3.33;;;0.40;;
65583;SDS011;73032;43.592;1.458;2024-02-23T05:41:01;4.88;;;0.63;;
65583;SDS011;73032;43.592;1.458;2024-02-23T05:43:27;1.67;;;0.40;;
65583;SDS011;73032;43.592;1.458;2024-02-23T05:45:54;3.55;;;0.52;;
65583;SDS011;73032;43.592;1.458;2024-02-23T05:48:23;3.03;;;0.50;;
65583;SDS011;73032;43.592;1.458;2024-02-23T05:50:50;1.80;;;0.30;;
65583;SDS011;73032;43.592;1.458;2024-02-23T05:53:17;1.58;;;0.73;;
65583;SDS011;73032;43.592;1.458;2024-02-23T05:55:43;2.25;;;0.38;;
65583;SDS011;73032;43.592;1.458;2024-02-23T05:58:10;2.30;;;0.35;;
65583;SDS011;73032;43.592;1.458;2024-02-23T06:00:39;2.10;;;0.40;;
65583;SDS011;73032;43.592;1.458;2024-02-23T06:03:06;2.03;;;0.40;;
65583;SDS011;73032;43.592;1.458;2024-02-23T06:05:33;1.73;;;0.35;;
65583;SDS011;73032;43.592;1.458;2024-02-23T06:08:00;6.05;;;0.50;;
65583;SDS011;73032;43.592;1.458;2024-02-23T06:10:27;1.63;;;0.40;;
65583;SDS011;73032;43.592;1.458;2024-02-23T06:12:54;4.88;;;0.60;;
65583;SDS011;73032;43.592;1.458;2024-02-23T06:15:24;6.18;;;0.95;;
65583;SDS011;73032;43.592;1.458;2024-02-23T06:17:50;5.07;;;1.10;;
65583;SDS011;73032;43.592;1.458;2024-02-23T06:20:17;5.07;;;1.02;;
65583;SDS011;73032;43.592;1.458;2024-02-23T06:22:46;3.33;;;0.80;;
65583;SDS011;73032;43.592;1.458;2024-02-23T06:25:12;4.03;;;0.80;;
65583;SDS011;73032;43.592;1.458;2024-02-23T06:27:39;5.75;;;0.90;;
65583;SDS011;73032;43.592;1.458;2024-02-23T06:30:06;5.10;;;0.70;;
65583;SDS011;73032;43.592;1.458;2024-02-23T06:32:33;2.17;;;0.50;;
65583;SDS011;73032;43.592;1.458;2024-02-23T06:35:00;3.65;;;0.52;;
65583;SDS011;73032;43.592;1.458;2024-02-23T06:37:27;2.05;;;0.60;;
65583;SDS011;73032;43.592;1.458;2024-02-23T06:39:54;2.17;;;0.60;;
65583;SDS011;73032;43.592;1.458;2024-02-23T06:42:21;4.20;;;0.85;;
65583;SDS011;73032;43.592;1.458;2024-02-23T06:44:48;2.88;;;0.60;;
65583;SDS011;73032;43.592;1.458;2024-02-23T06:47:15;3.08;;;0.60;;
65583;SDS011;73032;43.592;1.458;2024-02-23T06:49:42;2.50;;;0.80;;
65583;SDS011;73032;43.592;1.458;2024-02-23T06:52:10;3.55;;;0.55;;
65583;SDS011;73032;43.592;1.458;2024-02-23T06:54:37;3.30;;;0.85;;
65583;SDS011;73032;43.592;1.458;2024-02-23T06:57:04;1.35;;;0.50;;
65583;SDS011;73032;43.592;1.458;2024-02-23T06:59:30;1.48;;;0.50;;
65583;SDS011;73032;43.592;1.458;2024-02-23T07:01:58;3.17;;;0.77;;
65583;SDS011;73032;43.592;1.458;2024-02-23T07:04:25;2.13;;;0.60;;
65583;SDS011;73032;43.592;1.458;2024-02-23T07:06:52;2.35;;;1.58;;
65583;SDS011;73032;43.592;1.458;2024-02-23T07:09:19;1.90;;;0.60;;
65583;SDS011;73032;43.592;1.458;2024-02-23T07:11:45;1.63;;;0.50;;
65583;SDS011;73032;43.592;1.458;2024-02-23T07:14:12;3.35;;;0.73;;
65583;SDS011;73032;43.592;1.458;2024-02-23T07:16:40;1.38;;;0.70;;
65583;SDS011;73032;43.592;1.458;2024-02-23T07:19:07;1.58;;;0.55;;
65583;SDS011;73032;43.592;1.458;2024-02-23T07:21:36;1.52;;;0.43;;
65583;SDS011;73032;43.592;1.458;2024-02-23T07:24:06;3.03;;;0.45;;
65583;SDS011;73032;43.592;1.458;2024-02-23T07:26:33;1.83;;;0.43;;
65583;SDS011;73032;43.592;1.458;2024-02-23T07:29:00;1.95;;;0.50;;
65583;SDS011;73032;43.592;1.458;2024-02-23T07:31:27;2.63;;;0.50;;
65583;SDS011;73032;43.592;1.458;2024-02-23T07:34:00;2.05;;;0.32;;
65583;SDS011;73032;43.592;1.458;2024-02-23T07:36:27;3.25;;;0.52;;
65583;SDS011;73032;43.592;1.458;2024-02-23T07:38:54;1.40;;;0.40;;
65583;SDS011;73032;43.592;1.458;2024-02-23T07:41:21;0.93;;;0.28;;
65583;SDS011;73032;43.592;1.458;2024-02-23T07:43:48;1.95;;;0.40;;
65583;SDS011;73032;43.592;1.458;2024-02-23T07:46:15;1.77;;;0.30;;
65583;SDS011;73032;43.592;1.458;2024-02-23T07:48:42;3.55;;;0.47;;
65583;SDS011;73032;43.592;1.458;2024-02-23T07:51:09;2.53;;;0.55;;
65583;SDS011;73032;43.592;1.458;2024-02-23T07:53:37;4.30;;;0.43;;
65583;SDS011;73032;43.592;1.458;2024-02-23T07:56:04;1.92;;;0.40;;
65583;SDS011;73032;43.592;1.458;2024-02-23T07:58:31;2.65;;;0.60;;
65583;SDS011;73032;43.592;1.458;2024-02-23T08:00:57;4.50;;;0.50;;
65583;SDS011;73032;43.592;1.458;2024-02-23T08:03:24;2.42;;;0.60;;
65583;SDS011;73032;43.592;1.458;2024-02-23T08:05:52;0.80;;;0.30;;
65583;SDS011;73032;43.592;1.458;2024-02-23T08:08:19;2.95;;;0.40;;
65583;SDS011;73032;43.592;1.458;2024-02-23T08:10:49;2.28;;;0.50;;
65583;SDS011;73032;43.592;1.458;2024-02-23T08:13:16;3.63;;;0.35;;
65583;SDS011;73032;43.592;1.458;2024-02-23T08:15:44;2.03;;;0.50;;
65583;SDS011;73032;43.592;1.458;2024-02-23T08:18:11;1.65;;;0.40;;
65583;SDS011;73032;43.592;1.458;2024-02-23T08:20:37;2.65;;;0.40;;
65583;SDS011;73032;43.592;1.458;2024-02-23T08:23:04;2.70;;;0.47;;
65583;SDS011;73032;43.592;1.458;2024-02-23T08:25:31;2.45;;;0.50;;
65583;SDS011;73032;43.592;1.458;2024-02-23T08:27:58;1.88;;;0.68;;
65583;SDS011;73032;43.592;1.458;2024-02-23T08:30:25;1.63;;;0.45;;
65583;SDS011;73032;43.592;1.458;2024-02-23T08:32:52;3.88;;;0.60;;
65583;SDS011;73032;43.592;1.458;2024-02-23T08:35:19;3.88;;;0.82;;
65583;SDS011;73032;43.592;1.458;2024-02-23T08:37:46;2.85;;;0.52;;
65583;SDS011;73032;43.592;1.458;2024-02-23T08:40:12;2.90;;;0.70;;
65583;SDS011;73032;43.592;1.458;2024-02-23T08:42:39;2.35;;;0.50;;
65583;SDS011;73032;43.592;1.458;2024-02-23T08:45:06;2.42;;;0.60;;
65583;SDS011;73032;43.592;1.458;2024-02-23T08:47:33;2.22;;;0.50;;
65583;SDS011;73032;43.592;1.458;2024-02-23T08:50:02;1.95;;;0.60;;
65583;SDS011;73032;43.592;1.458;2024-02-23T08:52:29;4.57;;;0.55;;
65583;SDS011;73032;43.592;1.458;2024-02-23T08:54:56;3.65;;;0.60;;
65583;SDS011;73032;43.592;1.458;2024-02-23T08:57:23;7.35;;;0.70;;
65583;SDS011;73032;43.592;1.458;2024-02-23T08:59:50;5.10;;;0.60;;
65583;SDS011;73032;43.592;1.458;2024-02-23T09:02:16;3.63;;;0.70;;
65583;SDS011;73032;43.592;1.458;2024-02-23T09:04:43;2.63;;;0.57;;
65583;SDS011;73032;43.592;1.458;2024-02-23T09:07:12;5.13;;;0.70;;
65583;SDS011;73032;43.592;1.458;2024-02-23T09:09:39;2.15;;;0.77;;
65583;SDS011;73032;43.592;1.458;2024-02-23T09:12:06;3.30;;;0.70;;
65583;SDS011;73032;43.592;1.458;2024-02-23T09:14:37;4.03;;;0.80;;
65583;SDS011;73032;43.592;1.458;2024-02-23T09:17:08;2.35;;;0.57;;
65583;SDS011;73032;43.592;1.458;2024-02-23T09:19:36;1.75;;;0.50;;
65583;SDS011;73032;43.592;1.458;2024-02-23T09:22:03;2.80;;;0.50;;
65583;SDS011;73032;43.592;1.458;2024-02-23T09:24:30;2.63;;;0.50;;
65583;SDS011;73032;43.592;1.458;2024-02-23T09:26:56;2.95;;;0.50;;
65583;SDS011;73032;43.592;1.458;2024-02-23T09:29:23;1.95;;;0.60;;
65583;SDS011;73032;43.592;1.458;2024-02-23T09:31:50;3.38;;;0.50;;
65583;SDS011;73032;43.592;1.458;2024-02-23T09:34:16;4.70;;;0.60;;
65583;SDS011;73032;43.592;1.458;2024-02-23T09:36:43;1.23;;;0.30;;
65583;SDS011;73032;43.592;1.458;2024-02-23T09:41:41;4.03;;;0.40;;
65583;SDS011;73032;43.592;1.458;2024-02-23T09:44:08;1.15;;;0.50;;
65583;SDS011;73032;43.592;1.458;2024-02-23T09:46:36;1.98;;;0.50;;
65583;SDS011;73032;43.592;1.458;2024-02-23T09:49:04;2.38;;;0.32;;
65583;SDS011;73032;43.592;1.458;2024-02-23T09:51:33;4.32;;;0.70;;
65583;SDS011;73032;43.592;1.458;2024-02-23T09:54:02;2.42;;;0.80;;
65583;SDS011;73032;43.592;1.458;2024-02-23T09:56:29;3.63;;;0.60;;
65583;SDS011;73032;43.592;1.458;2024-02-23T09:58:57;1.90;;;0.60;;
65583;SDS011;73032;43.592;1.458;2024-02-23T10:01:28;2.85;;;0.40;;
65583;SDS011;73032;43.592;1.458;2024-02-23T10:04:03;4.07;;;0.88;;
65583;SDS011;73032;43.592;1.458;2024-02-23T10:06:31;2.40;;;0.40;;
65583;SDS011;73032;43.592;1.458;2024-02-23T10:08:58;2.55;;;0.50;;
65583;SDS011;73032;43.592;1.458;2024-02-23T10:11:25;4.00;;;1.23;;
65583;SDS011;73032;43.592;1.458;2024-02-23T10:13:52;3.47;;;0.60;;
65583;SDS011;73032;43.592;1.458;2024-02-23T10:16:20;1.20;;;0.50;;
65583;SDS011;73032;43.592;1.458;2024-02-23T10:18:48;2.22;;;0.50;;
65583;SDS011;73032;43.592;1.458;2024-02-23T10:21:15;2.35;;;0.55;;
65583;SDS011;73032;43.592;1.458;2024-02-23T10:23:45;1.88;;;0.40;;
65583;SDS011;73032;43.592;1.458;2024-02-23T10:26:14;1.30;;;0.50;;
65583;SDS011;73032;43.592;1.458;2024-02-23T10:28:45;4.35;;;0.80;;
65583;SDS011;73032;43.592;1.458;2024-02-23T10:31:15;1.60;;;0.30;;
65583;SDS011;73032;43.592;1.458;2024-02-23T10:33:42;1.60;;;0.50;;
65583;SDS011;73032;43.592;1.458;2024-02-23T10:36:11;3.25;;;0.50;;
65583;SDS011;73032;43.592;1.458;2024-02-23T10:38:40;1.80;;;0.50;;
65583;SDS011;73032;43.592;1.458;2024-02-23T10:41:12;3.75;;;0.60;;
65583;SDS011;73032;43.592;1.458;2024-02-23T10:43:44;3.88;;;0.57;;
65583;SDS011;73032;43.592;1.458;2024-02-23T10:46:13;1.95;;;0.40;;
65583;SDS011;73032;43.592;1.458;2024-02-23T10:48:41;1.60;;;0.50;;
65583;SDS011;73032;43.592;1.458;2024-02-23T10:51:10;3.13;;;0.40;;
65583;SDS011;73032;43.592;1.458;2024-02-23T10:53:42;1.73;;;0.30;;
65583;SDS011;73032;43.592;1.458;2024-02-23T10:56:12;0.63;;;0.30;;
65583;SDS011;73032;43.592;1.458;2024-02-23T10:58:39;1.92;;;0.47;;
65583;SDS011;73032;43.592;1.458;2024-02-23T11:01:06;3.33;;;0.50;;
65583;SDS011;73032;43.592;1.458;2024-02-23T11:03:35;3.67;;;0.60;;
65583;SDS011;73032;43.592;1.458;2024-02-23T11:06:06;1.85;;;0.50;;
65583;SDS011;73032;43.592;1.458;2024-02-23T11:08:34;1.70;;;0.47;;
65583;SDS011;73032;43.592;1.458;2024-02-23T11:11:09;4.80;;;0.50;;
65583;SDS011;73032;43.592;1.458;2024-02-23T11:13:39;2.35;;;0.32;;
65583;SDS011;73032;43.592;1.458;2024-02-23T11:16:07;2.22;;;0.50;;
65583;SDS011;73032;43.592;1.458;2024-02-23T11:21:08;4.45;;;0.60;;
65583;SDS011;73032;43.592;1.458;2024-02-23T11:23:43;1.63;;;0.43;;
65583;SDS011;73032;43.592;1.458;2024-02-23T11:26:11;2.45;;;0.60;;
65583;SDS011;73032;43.592;1.458;2024-02-23T11:28:49;1.55;;;0.38;;
65583;SDS011;73032;43.592;1.458;2024-02-23T11:31:19;2.13;;;0.47;;
65583;SDS011;73032;43.592;1.458;2024-02-23T11:33:50;1.08;;;0.35;;
65583;SDS011;73032;43.592;1.458;2024-02-23T11:36:22;3.20;;;0.73;;
65583;SDS011;73032;43.592;1.458;2024-02-23T11:38:49;2.40;;;0.70;;
65583;SDS011;73032;43.592;1.458;2024-02-23T11:41:23;1.63;;;0.50;;
65583;SDS011;73032;43.592;1.458;2024-02-23T11:43:50;0.82;;;0.32;;
65583;SDS011;73032;43.592;1.458;2024-02-23T11:46:18;2.40;;;0.50;;
65583;SDS011;73032;43.592;1.458;2024-02-23T11:48:46;3.13;;;0.73;;
65583;SDS011;73032;43.592;1.458;2024-02-23T11:51:14;1.58;;;0.60;;
65583;SDS011;73032;43.592;1.458;2024-02-23T11:53:41;1.80;;;0.57;;
65583;SDS011;73032;43.592;1.458;2024-02-23T11:56:08;3.72;;;0.77;;
65583;SDS011;73032;43.592;1.458;2024-02-23T11:58:36;5.13;;;0.95;;
65583;SDS011;73032;43.592;1.458;2024-02-23T12:01:03;1.85;;;0.80;;
65583;SDS011;73032;43.592;1.458;2024-02-23T12:03:30;1.98;;;0.77;;
65583;SDS011;73032;43.592;1.458;2024-02-23T12:05:57;3.05;;;0.77;;
65583;SDS011;73032;43.592;1.458;2024-02-23T12:08:28;2.05;;;0.50;;
65583;SDS011;73032;43.592;1.458;2024-02-23T12:10:56;3.30;;;0.70;;
65583;SDS011;73032;43.592;1.458;2024-02-23T12:13:26;1.33;;;0.52;;
65583;SDS011;73032;43.592;1.458;2024-02-23T12:15:53;2.65;;;0.50;;
65583;SDS011;73032;43.592;1.458;2024-02-23T12:18:23;1.60;;;0.50;;
65583;SDS011;73032;43.592;1.458;2024-02-23T12:21:06;2.63;;;0.55;;
65583;SDS011;73032;43.592;1.458;2024-02-23T12:23:51;1.73;;;0.47;;
65583;SDS011;73032;43.592;1.458;2024-02-23T12:26:19;1.73;;;0.50;;
65583;SDS011;73032;43.592;1.458;2024-02-23T12:28:46;2.40;;;0.45;;
65583;SDS011;73032;43.592;1.458;2024-02-23T12:31:13;0.40;;;0.22;;
65583;SDS011;73032;43.592;1.458;2024-02-23T12:33:43;1.38;;;0.30;;
65583;SDS011;73032;43.592;1.458;2024-02-23T12:36:15;1.98;;;0.50;;
65583;SDS011;73032;43.592;1.458;2024-02-23T12:38:41;0.75;;;0.30;;
65583;SDS011;73032;43.592;1.458;2024-02-23T12:41:09;0.95;;;0.32;;
65583;SDS011;73032;43.592;1.458;2024-02-23T12:43:37;1.17;;;0.32;;
65583;SDS011;73032;43.592;1.458;2024-02-23T12:46:07;0.67;;;0.33;;
65583;SDS011;73032;43.592;1.458;2024-02-23T12:48:35;1.38;;;0.50;;
65583;SDS011;73032;43.592;1.458;2024-02-23T12:51:02;1.10;;;0.40;;
65583;SDS011;73032;43.592;1.458;2024-02-23T12:56:03;1.20;;;0.40;;
65583;SDS011;73032;43.592;1.458;2024-02-23T12:58:31;1.15;;;0.50;;
65583;SDS011;73032;43.592;1.458;2024-02-23T13:00:58;0.80;;;0.20;;
65583;SDS011;73032;43.592;1.458;2024-02-23T13:03:25;2.05;;;0.28;;
65583;SDS011;73032;43.592;1.458;2024-02-23T13:05:53;0.93;;;0.40;;
65583;SDS011;73032;43.592;1.458;2024-02-23T13:08:21;1.73;;;0.55;;
65583;SDS011;73032;43.592;1.458;2024-02-23T13:10:49;2.15;;;0.50;;
65583;SDS011;73032;43.592;1.458;2024-02-23T13:13:18;1.63;;;0.60;;
65583;SDS011;73032;43.592;1.458;2024-02-23T13:15:48;2.58;;;0.40;;
65583;SDS011;73032;43.592;1.458;2024-02-23T13:18:16;3.60;;;0.50;;
65583;SDS011;73032;43.592;1.458;2024-02-23T13:20:43;1.45;;;0.50;;
65583;SDS011;73032;43.592;1.458;2024-02-23T13:23:10;2.58;;;0.50;;
65583;SDS011;73032;43.592;1.458;2024-02-23T13:25:38;1.75;;;0.50;;
65583;SDS011;73032;43.592;1.458;2024-02-23T13:28:06;2.45;;;0.47;;
65583;SDS011;73032;43.592;1.458;2024-02-23T13:30:34;2.10;;;0.50;;
65583;SDS011;73032;43.592;1.458;2024-02-23T13:33:02;1.65;;;0.40;;
65583;SDS011;73032;43.592;1.458;2024-02-23T13:35:29;1.33;;;0.45;;
65583;SDS011;73032;43.592;1.458;2024-02-23T13:37:56;4.25;;;0.43;;
65583;SDS011;73032;43.592;1.458;2024-02-23T13:40:26;2.25;;;0.60;;
65583;SDS011;73032;43.592;1.458;2024-02-23T13:42:52;2.83;;;0.40;;
65583;SDS011;73032;43.592;1.458;2024-02-23T13:45:19;1.38;;;0.38;;
65583;SDS011;73032;43.592;1.458;2024-02-23T13:47:59;1.87;;;0.40;;
65583;SDS011;73032;43.592;1.458;2024-02-23T13:50:27;2.90;;;1.00;;
65583;SDS011;73032;43.592;1.458;2024-02-23T13:52:54;2.20;;;0.45;;
65583;SDS011;73032;43.592;1.458;2024-02-23T13:55:21;1.75;;;0.40;;
65583;SDS011;73032;43.592;1.458;2024-02-23T13:57:48;1.15;;;0.40;;
65583;SDS011;73032;43.592;1.458;2024-02-23T14:00:16;1.90;;;0.50;;
65583;SDS011;73032;43.592;1.458;2024-02-23T14:02:43;1.55;;;0.40;;
65583;SDS011;73032;43.592;1.458;2024-02-23T14:05:11;2.22;;;0.38;;
65583;SDS011;73032;43.592;1.458;2024-02-23T14:07:39;0.77;;;0.30;;
65583;SDS011;73032;43.592;1.458;2024-02-23T14:10:06;1.50;;;0.43;;
65583;SDS011;73032;43.592;1.458;2024-02-23T14:12:34;1.27;;;0.30;;
65583;SDS011;73032;43.592;1.458;2024-02-23T14:15:01;1.10;;;0.25;;
65583;SDS011;73032;43.592;1.458;2024-02-23T14:17:28;1.20;;;0.40;;
65583;SDS011;73032;43.592;1.458;2024-02-23T14:19:55;1.52;;;0.30;;
65583;SDS011;73032;43.592;1.458;2024-02-23T14:22:22;2.17;;;0.30;;
65583;SDS011;73032;43.592;1.458;2024-02-23T14:24:49;1.08;;;0.30;;
65583;SDS011;73032;43.592;1.458;2024-02-23T14:27:16;0.55;;;0.20;;
65583;SDS011;73032;43.592;1.458;2024-02-23T14:29:42;2.13;;;0.40;;
65583;SDS011;73032;43.592;1.458;2024-02-23T14:32:10;2.15;;;0.73;;
65583;SDS011;73032;43.592;1.458;2024-02-23T14:34:42;1.23;;;0.35;;
65583;SDS011;73032;43.592;1.458;2024-02-23T14:37:09;2.63;;;0.50;;
65583;SDS011;73032;43.592;1.458;2024-02-23T14:39:36;1.05;;;0.25;;
65583;SDS011;73032;43.592;1.458;2024-02-23T14:42:03;1.10;;;0.50;;
65583;SDS011;73032;43.592;1.458;2024-02-23T14:44:30;1.30;;;0.47;;
65583;SDS011;73032;43.592;1.458;2024-02-23T14:46:56;1.40;;;0.30;;
65583;SDS011;73032;43.592;1.458;2024-02-23T14:49:23;1.73;;;0.30;;
65583;SDS011;73032;43.592;1.458;2024-02-23T14:51:50;1.42;;;0.30;;
65583;SDS011;73032;43.592;1.458;2024-02-23T14:54:17;1.52;;;0.57;;
65583;SDS011;73032;43.592;1.458;2024-02-23T14:56:43;0.52;;;0.38;;